KNIP/NIP METAR and TAF weather

Enter ICAO airport designator
Station Type Date Time Source
KNIP METAR 2021/05/11 00:53 UTC NOAA

KNIP 110053Z 25008KT 10SM FEW040 BKN190 BKN250 27/18 A3003 RMK AO2 SLP166 T02670178 $


Station Type Date Time Source
KNIP Decoded METAR 2021/05/11 00:53 UTC NOAA

JACKSONVILLE NAVAL AIR STN, FL, United States (KNIP) 30-14N 81-40W 8M
May 10, 2021 - 08:53 PM EDT / 2021.05.11 0053 UTC
Wind: from the WSW (250 degrees) at 9 MPH (8 KT):0
Visibility: 10 mile(s):0
Sky conditions: mostly cloudy
Temperature: 80.1 F (26.7 C)
Dew Point: 64.0 F (17.8 C)
Relative Humidity: 58%
Pressure (altimeter): 30.03 in. Hg (1016 hPa)
ob: KNIP 110053Z 25008KT 10SM FEW040 BKN190 BKN250 27/18 A3003 RMK AO2 SLP166 T02670178
cycle: 1

Station Type Date Time Source
KNIP TAF 2021/05/10 23:56 UTC NOAA

TAF KNIP 1023/1123 26011KT 9999 SCT050 SCT075 BKN250 QNH3000INS
FM110100 25007KT 9999 VCSH SCT030 BKN070 BKN250 QNH3001INS
FM110400 27005KT 9999 FEW030 SCT150 BKN250 QNH3001INS
FM111600 28006KT 9999 VCTS BKN030CB BKN080 BKN250 QNH3000INS T22/1111Z T31/1120Z FN20076

Example: see airport list